createdAt,value
2019-05-17T00:01:37.572Z,99.00
2019-05-17T00:04:07.183Z,99.90
2019-05-17T00:06:36.926Z,99.40
2019-05-17T00:09:07.580Z,99.20
2019-05-17T00:11:36.803Z,98.80
2019-05-17T00:14:06.347Z,98.90
2019-05-17T00:16:37.357Z,99.90
2019-05-17T00:19:07.462Z,99.70
2019-05-17T00:21:36.991Z,99.90
2019-05-17T00:24:06.655Z,99.90
2019-05-17T00:26:36.304Z,99.90
2019-05-17T00:29:06.875Z,99.90
2019-05-17T00:31:37.047Z,99.30
2019-05-17T00:34:07.347Z,99.90
2019-05-17T00:36:37.466Z,99.90
2019-05-17T00:39:07.541Z,99.90
2019-05-17T00:41:37.907Z,99.90
2019-05-17T00:44:06.742Z,99.90
2019-05-17T00:46:37.283Z,99.90
2019-05-17T00:49:06.621Z,99.90
2019-05-17T00:51:36.954Z,99.90
2019-05-17T00:54:06.816Z,99.90
2019-05-17T00:56:37.189Z,99.90
2019-05-17T00:59:07.413Z,99.90
2019-05-17T01:01:36.594Z,99.90
2019-05-17T01:04:06.830Z,99.90
2019-05-17T01:06:37.550Z,99.90
2019-05-17T01:09:07.767Z,99.90
2019-05-17T01:11:36.802Z,99.90
2019-05-17T01:14:06.851Z,99.90
2019-05-17T01:16:36.753Z,99.90
2019-05-17T01:19:06.843Z,99.90
2019-05-17T01:21:36.785Z,99.90
2019-05-17T01:24:06.827Z,99.90
2019-05-17T01:26:37.403Z,99.90
2019-05-17T01:29:06.811Z,99.90
2019-05-17T01:31:37.313Z,99.90
2019-05-17T01:34:07.327Z,99.90
2019-05-17T01:36:37.033Z,99.90
2019-05-17T01:39:15.260Z,99.90
2019-05-17T01:41:37.302Z,99.90
2019-05-17T01:44:07.466Z,99.90
2019-05-17T01:46:37.043Z,99.90
2019-05-17T01:49:06.890Z,99.90
2019-05-17T01:51:37.022Z,99.90
2019-05-17T01:54:06.835Z,99.90
2019-05-17T01:56:36.961Z,99.90
2019-05-17T01:59:06.804Z,99.90
2019-05-17T02:01:37.091Z,99.90
2019-05-17T02:04:06.621Z,99.90
2019-05-17T02:06:36.607Z,99.90
2019-05-17T02:09:06.862Z,99.90
2019-05-17T02:11:37.335Z,99.90
2019-05-17T02:14:06.970Z,99.90
2019-05-17T02:16:37.654Z,99.90
2019-05-17T02:19:06.873Z,99.90
2019-05-17T02:21:36.761Z,99.90
2019-05-17T02:24:07.978Z,99.90
2019-05-17T02:26:37.470Z,99.90
2019-05-17T02:29:06.433Z,99.90
2019-05-17T02:31:35.359Z,99.90
2019-05-17T02:34:04.231Z,99.90
2019-05-17T02:36:33.439Z,99.90
2019-05-17T02:39:03.569Z,99.90
2019-05-17T02:41:33.300Z,99.90
2019-05-17T02:44:02.662Z,99.90
2019-05-17T02:46:33.886Z,99.90
2019-05-17T02:49:03.013Z,99.90
2019-05-17T02:51:32.611Z,99.90
2019-05-17T02:54:04.107Z,99.90
2019-05-17T02:56:32.759Z,99.90
2019-05-17T02:59:03.601Z,99.90
2019-05-17T03:01:33.507Z,99.90
2019-05-17T03:04:03.780Z,99.90
2019-05-17T03:06:33.174Z,99.90
2019-05-17T03:09:03.317Z,99.90
2019-05-17T03:11:33.393Z,99.90
2019-05-17T03:14:03.906Z,99.90
2019-05-17T03:16:33.843Z,99.90
2019-05-17T03:19:04.077Z,99.90
2019-05-17T03:21:33.879Z,99.90
2019-05-17T03:24:03.871Z,99.90
2019-05-17T03:26:33.056Z,99.90
2019-05-17T03:29:03.424Z,99.90
2019-05-17T03:31:40.703Z,99.90
2019-05-17T03:34:06.778Z,99.90
2019-05-17T03:36:36.425Z,99.90
2019-05-17T03:39:07.039Z,99.90
2019-05-17T03:41:35.992Z,99.90
2019-05-17T03:44:05.413Z,99.90
2019-05-17T03:46:34.368Z,99.90
2019-05-17T03:49:04.077Z,99.90
2019-05-17T03:51:33.520Z,99.90
2019-05-17T03:54:03.307Z,99.90
2019-05-17T03:56:32.963Z,99.90
2019-05-17T03:59:03.783Z,99.90
2019-05-17T04:01:33.008Z,99.90
2019-05-17T04:04:02.823Z,99.90
2019-05-17T04:06:32.882Z,99.90
2019-05-17T04:09:03.639Z,99.90
2019-05-17T04:11:36.289Z,99.90
2019-05-17T04:14:03.253Z,99.90
2019-05-17T04:16:33.919Z,99.90
2019-05-17T04:19:03.310Z,99.90
2019-05-17T04:21:34.142Z,99.90
2019-05-17T04:24:03.321Z,99.90
2019-05-17T04:26:32.846Z,99.90
2019-05-17T04:29:03.571Z,99.90
2019-05-17T04:31:34.906Z,99.90
2019-05-17T04:34:03.278Z,99.90
2019-05-17T04:36:32.458Z,99.90
2019-05-17T04:39:02.460Z,99.90
2019-05-17T04:41:44.707Z,99.90
2019-05-17T04:44:02.841Z,99.90
2019-05-17T04:46:32.634Z,99.90
2019-05-17T04:49:02.947Z,99.90
2019-05-17T04:51:33.627Z,99.90
2019-05-17T04:54:03.236Z,99.90
2019-05-17T04:56:33.282Z,99.90
2019-05-17T04:59:03.545Z,99.90
2019-05-17T05:01:33.118Z,99.90
2019-05-17T05:04:03.545Z,99.90
2019-05-17T05:06:33.072Z,99.90
2019-05-17T05:09:02.710Z,99.90
2019-05-17T05:11:32.810Z,99.90
2019-05-17T05:14:02.877Z,99.90
2019-05-17T05:16:32.230Z,99.90
2019-05-17T05:19:02.949Z,99.90
2019-05-17T05:21:32.460Z,99.90
2019-05-17T05:24:02.500Z,99.90
2019-05-17T05:26:31.852Z,99.90
2019-05-17T05:29:02.120Z,99.90
2019-05-17T05:31:32.207Z,99.90
2019-05-17T05:34:01.873Z,99.90
2019-05-17T05:36:32.779Z,99.90
2019-05-17T05:39:02.436Z,99.90
2019-05-17T05:41:31.991Z,99.90
2019-05-17T05:44:01.806Z,99.90
2019-05-17T05:46:31.777Z,99.90
2019-05-17T05:49:01.742Z,99.90
2019-05-17T05:51:32.014Z,99.90
2019-05-17T05:54:01.641Z,99.90
2019-05-17T05:56:32.585Z,99.90
2019-05-17T05:59:02.901Z,99.90
2019-05-17T06:01:32.721Z,99.90
2019-05-17T06:04:02.683Z,99.90
2019-05-17T06:06:32.260Z,99.90
2019-05-17T06:09:02.756Z,99.90
2019-05-17T06:11:32.332Z,99.90
2019-05-17T06:14:01.771Z,99.90
2019-05-17T06:16:32.099Z,99.90
2019-05-17T06:19:02.421Z,99.90
2019-05-17T06:21:31.969Z,99.90
2019-05-17T06:24:02.578Z,99.90
2019-05-17T06:26:31.610Z,99.90
2019-05-17T06:29:02.690Z,99.90
2019-05-17T06:31:33.275Z,99.90
2019-05-17T06:34:02.041Z,99.90
2019-05-17T06:36:32.850Z,99.90
2019-05-17T06:39:02.286Z,99.90
2019-05-17T06:41:32.355Z,99.90
2019-05-17T06:44:02.934Z,99.90
2019-05-17T06:46:32.512Z,99.90
2019-05-17T06:49:02.990Z,99.90
2019-05-17T06:51:33.258Z,99.90
2019-05-17T06:54:05.635Z,99.90
2019-05-17T06:56:34.857Z,99.90
2019-05-17T06:59:04.368Z,99.90
2019-05-17T07:01:33.379Z,99.90
2019-05-17T07:04:02.330Z,99.90
2019-05-17T07:06:33.527Z,99.90
2019-05-17T07:09:02.534Z,99.90
2019-05-17T07:11:31.809Z,99.90
2019-05-17T07:14:00.689Z,99.90
2019-05-17T07:16:30.143Z,99.90
2019-05-17T07:18:59.780Z,99.90
2019-05-17T07:21:29.720Z,99.90
2019-05-17T07:23:59.379Z,99.90
2019-05-17T07:26:30.231Z,99.90
2019-05-17T07:28:59.336Z,99.90
2019-05-17T07:31:29.809Z,99.90
2019-05-17T07:33:59.837Z,99.90
2019-05-17T07:36:30.671Z,99.90
2019-05-17T07:39:00.793Z,99.90
2019-05-17T07:41:29.961Z,99.90
2019-05-17T07:44:00.410Z,99.10
2019-05-17T07:46:30.256Z,99.20
2019-05-17T07:49:00.415Z,99.00
2019-05-17T07:51:30.094Z,99.00
2019-05-17T07:53:59.749Z,99.00
2019-05-17T07:56:30.544Z,97.10
2019-05-17T07:59:00.061Z,96.80
2019-05-17T08:01:29.746Z,96.80
2019-05-17T08:04:00.571Z,95.30
2019-05-17T08:06:30.609Z,95.40
2019-05-17T08:09:03.977Z,95.50
2019-05-17T08:11:30.423Z,94.30
2019-05-17T08:14:01.515Z,94.00
2019-05-17T08:16:33.459Z,93.80
2019-05-17T08:19:02.495Z,93.70
2019-05-17T08:21:31.351Z,93.40
2019-05-17T08:24:00.859Z,92.70
2019-05-17T08:26:29.949Z,92.40
2019-05-17T08:29:00.693Z,90.90
2019-05-17T08:31:29.612Z,88.70
2019-05-17T08:34:00.089Z,83.80
2019-05-17T08:36:29.802Z,80.70
2019-05-17T08:38:59.649Z,79.10
2019-05-17T08:41:30.897Z,77.50
2019-05-17T08:44:00.718Z,72.40
2019-05-17T08:46:30.509Z,75.80
2019-05-17T08:49:00.320Z,67.70
2019-05-17T08:51:30.481Z,69.70
2019-05-17T08:54:00.132Z,65.80
2019-05-17T08:56:30.876Z,63.40
2019-05-17T08:59:00.791Z,65.40
2019-05-17T09:01:30.178Z,59.80
2019-05-17T09:03:59.828Z,60.90
2019-05-17T09:06:29.349Z,60.60
2019-05-17T09:09:00.809Z,59.60
2019-05-17T09:11:30.310Z,55.40
2019-05-17T09:14:02.170Z,50.90
2019-05-17T09:16:30.759Z,49.30
2019-05-17T09:19:00.494Z,50.60
2019-05-17T09:21:31.277Z,47.90
2019-05-17T09:24:00.120Z,49.50
2019-05-17T09:26:29.443Z,48.40
2019-05-17T09:29:01.128Z,45.70
2019-05-17T09:31:29.823Z,48.70
2019-05-17T09:34:00.288Z,47.00
2019-05-17T09:36:30.356Z,46.60
2019-05-17T09:39:00.341Z,47.90
2019-05-17T09:41:29.388Z,44.90
2019-05-17T09:44:09.587Z,46.00
2019-05-17T09:46:30.347Z,47.00
2019-05-17T09:49:01.235Z,45.30
2019-05-17T09:51:30.426Z,43.30
2019-05-17T09:54:00.042Z,43.90
2019-05-17T09:56:30.164Z,44.90
2019-05-17T09:59:00.449Z,43.70
2019-05-17T10:01:30.361Z,42.70
2019-05-17T10:03:59.980Z,44.40
2019-05-17T10:06:29.145Z,43.60
2019-05-17T10:09:00.076Z,41.70
2019-05-17T10:11:30.944Z,43.30
2019-05-17T10:14:01.355Z,44.30
2019-05-17T10:16:30.888Z,44.40
2019-05-17T10:19:00.169Z,43.60
2019-05-17T10:21:30.378Z,42.80
2019-05-17T10:24:00.165Z,43.60
2019-05-17T10:26:30.331Z,44.90
2019-05-17T10:28:59.499Z,46.00
2019-05-17T10:31:30.249Z,47.70
2019-05-17T10:34:01.108Z,46.00
2019-05-17T10:36:29.743Z,48.50
2019-05-17T10:38:59.241Z,47.70
2019-05-17T10:41:30.141Z,46.10
2019-05-17T10:43:59.244Z,47.50
2019-05-17T10:46:30.011Z,50.20
2019-05-17T10:48:58.631Z,50.20
2019-05-17T10:51:29.675Z,50.40
2019-05-17T10:53:59.981Z,52.70
2019-05-17T10:56:33.304Z,49.30
2019-05-17T10:59:09.771Z,50.20
2019-05-17T11:01:39.153Z,49.00
2019-05-17T11:04:10.317Z,51.80
2019-05-17T11:06:39.404Z,47.70
2019-05-17T11:09:11.466Z,49.50
2019-05-17T11:11:40.335Z,48.20
2019-05-17T11:14:09.265Z,48.50
2019-05-17T11:16:38.123Z,50.70
2019-05-17T11:19:08.769Z,50.20
2019-05-17T11:21:37.831Z,49.90
2019-05-17T11:24:06.886Z,47.80
2019-05-17T11:26:35.719Z,49.50
2019-05-17T11:29:04.652Z,50.00
2019-05-17T11:31:36.385Z,49.80
2019-05-17T11:34:05.211Z,48.90
2019-05-17T11:36:34.122Z,48.90
2019-05-17T11:39:03.321Z,47.20
2019-05-17T11:41:32.296Z,48.10
2019-05-17T11:44:01.203Z,50.20
2019-05-17T11:46:36.188Z,48.90
2019-05-17T11:49:04.212Z,50.70
2019-05-17T11:51:37.675Z,50.30
2019-05-17T11:54:07.961Z,49.30
2019-05-17T11:56:36.829Z,49.00
2019-05-17T11:59:05.779Z,50.50
2019-05-17T12:01:34.648Z,48.70
2019-05-17T12:04:03.507Z,47.70
2019-05-17T12:06:32.929Z,51.20
2019-05-17T12:09:03.464Z,50.40
2019-05-17T12:11:32.392Z,50.60
2019-05-17T12:14:01.463Z,51.50
2019-05-17T12:16:30.295Z,52.90
2019-05-17T12:19:01.756Z,52.50
2019-05-17T12:21:30.939Z,53.30
2019-05-17T12:24:01.275Z,52.30
2019-05-17T12:26:36.268Z,50.20
2019-05-17T12:29:06.951Z,52.70
2019-05-17T12:31:36.029Z,53.60
2019-05-17T12:34:04.999Z,54.00
2019-05-17T12:36:34.475Z,53.60
2019-05-17T12:39:07.685Z,56.90
2019-05-17T12:41:38.596Z,55.50
2019-05-17T12:44:07.462Z,55.40
2019-05-17T12:46:38.296Z,54.90
2019-05-17T12:49:07.263Z,55.90
2019-05-17T12:51:36.081Z,58.90
2019-05-17T12:54:06.913Z,55.00
2019-05-17T12:56:37.299Z,55.00
2019-05-17T12:59:08.495Z,54.10
2019-05-17T13:01:38.674Z,55.00
2019-05-17T13:04:07.603Z,55.40
2019-05-17T13:06:39.640Z,56.80
2019-05-17T13:09:08.693Z,56.10
2019-05-17T13:11:38.190Z,54.30
2019-05-17T13:14:07.050Z,52.70
2019-05-17T13:16:35.929Z,53.60
2019-05-17T13:19:06.415Z,52.00
2019-05-17T13:21:39.940Z,53.60
2019-05-17T13:24:10.449Z,52.30
2019-05-17T13:26:39.543Z,48.70
2019-05-17T13:29:10.178Z,51.20
2019-05-17T13:31:39.260Z,49.70
2019-05-17T13:34:08.108Z,51.10
2019-05-17T13:36:36.964Z,49.50
2019-05-17T13:39:10.201Z,50.50
2019-05-17T13:41:40.913Z,51.40
2019-05-17T13:44:12.230Z,52.50
2019-05-17T13:46:41.191Z,54.50
2019-05-17T13:49:10.057Z,52.60
2019-05-17T13:51:40.278Z,51.80
2019-05-17T13:54:09.203Z,52.80
2019-05-17T13:56:38.172Z,52.70
2019-05-17T13:59:08.760Z,52.10
2019-05-17T14:01:40.691Z,52.00
2019-05-17T14:04:09.550Z,54.10
2019-05-17T14:06:38.440Z,51.30
2019-05-17T14:09:07.935Z,51.50
2019-05-17T14:11:37.185Z,51.70
2019-05-17T14:14:06.102Z,51.90
2019-05-17T14:16:35.058Z,51.30
2019-05-17T14:19:05.536Z,51.60
2019-05-17T14:21:34.407Z,51.10
2019-05-17T14:24:03.356Z,52.50
2019-05-17T14:26:32.209Z,51.80
2019-05-17T14:29:02.755Z,52.20
2019-05-17T14:31:31.879Z,52.90
2019-05-17T14:34:00.751Z,54.50
2019-05-17T14:36:29.574Z,53.40
2019-05-17T14:38:58.523Z,52.00
2019-05-17T14:41:31.164Z,53.00
2019-05-17T14:44:03.087Z,53.20
2019-05-17T14:46:31.956Z,53.00
2019-05-17T14:49:00.899Z,52.30
2019-05-17T14:51:31.428Z,52.00
2019-05-17T14:54:01.782Z,51.50
2019-05-17T14:56:30.940Z,51.50
2019-05-17T14:59:02.149Z,50.30
2019-05-17T15:01:33.066Z,52.30
2019-05-17T15:04:02.157Z,54.00
2019-05-17T15:06:33.802Z,53.40
2019-05-17T15:09:04.211Z,54.40
2019-05-17T15:11:33.079Z,53.50
2019-05-17T15:14:02.242Z,52.40
2019-05-17T15:16:33.882Z,54.30
2019-05-17T15:19:04.703Z,52.20
2019-05-17T15:21:36.257Z,53.90
2019-05-17T15:24:05.164Z,54.10
2019-05-17T15:26:35.801Z,54.80
2019-05-17T15:29:06.565Z,53.60
2019-05-17T15:31:35.435Z,56.10
2019-05-17T15:34:07.175Z,55.60
2019-05-17T15:36:36.200Z,56.10
2019-05-17T15:39:06.593Z,58.40
2019-05-17T15:41:35.543Z,58.90
2019-05-17T15:44:04.476Z,58.10
2019-05-17T15:46:33.412Z,59.60
2019-05-17T15:49:05.552Z,59.50
2019-05-17T15:51:35.909Z,60.60
2019-05-17T15:54:07.703Z,58.50
2019-05-17T15:56:42.548Z,59.10
2019-05-17T15:59:11.428Z,60.50
2019-05-17T16:01:55.861Z,60.10
2019-05-17T16:04:27.723Z,60.10
2019-05-17T16:06:59.344Z,62.10
2019-05-17T16:09:29.809Z,61.40
2019-05-17T16:11:58.933Z,63.10
2019-05-17T16:14:27.834Z,62.40
2019-05-17T16:16:57.194Z,62.80
2019-05-17T16:19:27.558Z,63.80
2019-05-17T16:21:56.670Z,64.90
2019-05-17T16:24:25.632Z,64.20
2019-05-17T16:26:54.686Z,65.50
2019-05-17T16:29:23.674Z,67.70
2019-05-17T16:31:52.585Z,66.80
2019-05-17T16:34:21.447Z,66.80
2019-05-17T16:36:50.360Z,68.60
2019-05-17T16:39:19.229Z,66.90
2019-05-17T16:41:48.086Z,65.90
2019-05-17T16:44:17.388Z,68.30
2019-05-17T16:46:46.305Z,67.30
2019-05-17T16:49:15.431Z,69.20
2019-05-17T16:51:44.309Z,71.10
2019-05-17T16:54:13.170Z,70.60
2019-05-17T16:56:42.036Z,70.50
2019-05-17T16:59:11.047Z,70.80
2019-05-17T17:01:39.922Z,71.30
2019-05-17T17:04:08.999Z,73.20
2019-05-17T17:06:37.895Z,74.20
2019-05-17T17:09:07.272Z,75.30
2019-05-17T17:11:36.168Z,75.10
2019-05-17T17:14:05.227Z,77.40
2019-05-17T17:16:34.082Z,76.90
2019-05-17T17:19:03.060Z,77.70
2019-05-17T17:21:31.917Z,78.50
2019-05-17T17:24:00.783Z,80.20
2019-05-17T17:26:30.141Z,80.30
2019-05-17T17:28:59.163Z,79.70
2019-05-17T17:31:28.732Z,79.90
2019-05-17T17:33:57.679Z,81.20
2019-05-17T17:36:26.581Z,82.10
2019-05-17T17:38:55.541Z,81.90
2019-05-17T17:41:26.639Z,82.80
2019-05-17T17:43:58.639Z,85.30
2019-05-17T17:46:26.341Z,85.20
2019-05-17T17:48:55.215Z,86.20
2019-05-17T17:51:24.113Z,83.80
2019-05-17T17:53:53.015Z,85.20
2019-05-17T17:56:21.860Z,85.90
2019-05-17T17:58:50.738Z,84.60
2019-05-17T18:01:19.726Z,84.10
2019-05-17T18:03:48.743Z,84.30
2019-05-17T18:06:17.738Z,84.30
2019-05-17T18:08:46.627Z,84.40
2019-05-17T18:11:18.488Z,85.60
2019-05-17T18:13:47.758Z,84.30
2019-05-17T18:16:16.621Z,84.60
2019-05-17T18:18:45.530Z,84.30
2019-05-17T18:21:14.397Z,84.40
2019-05-17T18:23:43.682Z,85.40
2019-05-17T18:26:12.542Z,85.70
2019-05-17T18:28:41.582Z,85.40
2019-05-17T18:31:10.528Z,86.20
2019-05-17T18:33:39.401Z,87.70
2019-05-17T18:36:08.267Z,86.90
2019-05-17T18:38:37.787Z,88.30
2019-05-17T18:41:06.651Z,90.10
2019-05-17T18:43:35.694Z,90.70
2019-05-17T18:46:04.746Z,91.70
2019-05-17T18:48:33.655Z,92.00
2019-05-17T18:51:02.561Z,92.70
2019-05-17T18:53:31.459Z,92.60
2019-05-17T18:56:00.316Z,93.10
2019-05-17T18:58:29.571Z,93.10
2019-05-17T19:00:58.432Z,94.20
2019-05-17T19:03:27.265Z,94.90
2019-05-17T19:05:56.193Z,95.30
2019-05-17T19:08:25.083Z,95.10
2019-05-17T19:10:53.948Z,95.50
2019-05-17T19:13:22.870Z,96.20
2019-05-17T19:15:51.741Z,96.30
2019-05-17T19:18:20.646Z,96.80
2019-05-17T19:20:49.566Z,97.00
2019-05-17T19:23:18.413Z,97.10
2019-05-17T19:25:47.230Z,97.20
2019-05-17T19:28:16.152Z,97.00
2019-05-17T19:30:45.053Z,98.10
2019-05-17T19:33:13.923Z,97.00
2019-05-17T19:35:43.022Z,97.20
2019-05-17T19:38:11.895Z,98.00
2019-05-17T19:40:41.174Z,97.50
2019-05-17T19:43:10.087Z,97.30
2019-05-17T19:45:38.948Z,97.80
2019-05-17T19:48:07.845Z,97.80
2019-05-17T19:50:36.743Z,98.00
2019-05-17T19:53:05.613Z,98.00
2019-05-17T19:55:34.481Z,98.80
2019-05-17T19:58:03.344Z,98.50
2019-05-17T20:00:32.210Z,98.30
2019-05-17T20:03:01.059Z,98.60
2019-05-17T20:05:30.019Z,98.50
2019-05-17T20:07:58.888Z,98.30
2019-05-17T20:10:27.762Z,98.80
2019-05-17T20:12:56.682Z,98.50
2019-05-17T20:15:34.104Z,98.50
2019-05-17T20:17:56.372Z,98.50
2019-05-17T20:20:25.830Z,98.90
2019-05-17T20:22:54.726Z,99.10
2019-05-17T20:25:23.591Z,98.60
2019-05-17T20:27:52.495Z,98.80
2019-05-17T20:30:21.888Z,99.00
2019-05-17T20:32:50.759Z,99.90
2019-05-17T20:35:19.790Z,99.10
2019-05-17T20:37:48.665Z,99.30
2019-05-17T20:40:17.677Z,99.90
2019-05-17T20:42:46.638Z,99.70
2019-05-17T20:45:30.616Z,99.90
2019-05-17T20:47:47.497Z,99.90
2019-05-17T20:50:16.646Z,99.90
2019-05-17T20:52:45.605Z,99.90
2019-05-17T20:55:14.811Z,99.90
2019-05-17T20:57:43.743Z,99.90
2019-05-17T21:00:13.972Z,99.90
2019-05-17T21:02:43.308Z,99.90
2019-05-17T21:05:15.210Z,99.90
2019-05-17T21:07:44.132Z,99.90
2019-05-17T21:10:13.222Z,99.90
2019-05-17T21:12:42.138Z,99.90
2019-05-17T21:15:11.300Z,99.90
2019-05-17T21:17:40.125Z,99.90
2019-05-17T21:20:09.449Z,99.90
2019-05-17T21:22:38.403Z,99.90
2019-05-17T21:25:08.769Z,99.90
2019-05-17T21:27:37.711Z,99.90
2019-05-17T21:30:07.147Z,99.90
2019-05-17T21:32:36.220Z,99.90
2019-05-17T21:35:06.631Z,99.90
2019-05-17T21:37:36.179Z,99.90
2019-05-17T21:40:07.264Z,99.90
2019-05-17T21:42:36.147Z,99.90
2019-05-17T21:45:06.584Z,99.90
2019-05-17T21:47:35.458Z,99.90
2019-05-17T21:50:05.117Z,99.90
2019-05-17T21:52:33.992Z,99.90
2019-05-17T21:55:07.748Z,99.90
2019-05-17T21:57:36.787Z,99.90
2019-05-17T22:00:09.148Z,99.90
2019-05-17T22:02:42.657Z,99.90
2019-05-17T22:05:12.284Z,99.90
2019-05-17T22:07:41.357Z,99.90
2019-05-17T22:10:10.621Z,99.90
2019-05-17T22:12:40.630Z,99.90
2019-05-17T22:15:09.578Z,99.90
2019-05-17T22:17:38.585Z,99.90
2019-05-17T22:20:07.616Z,99.90
2019-05-17T22:22:36.556Z,99.90
2019-05-17T22:25:06.231Z,99.90
2019-05-17T22:27:35.451Z,99.90
2019-05-17T22:30:07.139Z,99.90
2019-05-17T22:32:36.712Z,99.90
2019-05-17T22:35:07.154Z,99.90
2019-05-17T22:37:36.103Z,99.90
2019-05-17T22:40:06.967Z,99.90
2019-05-17T22:42:39.183Z,99.90
2019-05-17T22:45:07.047Z,99.90
2019-05-17T22:47:36.171Z,99.90
2019-05-17T22:50:06.521Z,99.90
2019-05-17T22:52:35.865Z,99.90
2019-05-17T22:55:06.640Z,99.90
2019-05-17T22:57:35.581Z,99.90
2019-05-17T23:00:06.948Z,99.90
2019-05-17T23:02:35.851Z,99.90
2019-05-17T23:05:05.933Z,99.90
2019-05-17T23:07:34.798Z,99.90
2019-05-17T23:10:05.810Z,99.90
2019-05-17T23:12:34.681Z,99.90
2019-05-17T23:15:04.879Z,99.90
2019-05-17T23:17:33.770Z,99.90
2019-05-17T23:20:02.687Z,99.90
2019-05-17T23:22:31.538Z,99.90
2019-05-17T23:25:00.408Z,99.90
2019-05-17T23:27:29.282Z,99.90
2019-05-17T23:29:58.124Z,99.90
2019-05-17T23:32:27.058Z,99.90
2019-05-17T23:34:55.931Z,99.90
2019-05-17T23:37:24.787Z,99.90
2019-05-17T23:39:53.687Z,99.90
2019-05-17T23:42:22.555Z,99.90
2019-05-17T23:44:51.412Z,99.90
2019-05-17T23:47:20.308Z,99.90
2019-05-17T23:49:49.174Z,99.90
2019-05-17T23:52:17.999Z,99.90
2019-05-17T23:54:46.904Z,99.90
2019-05-17T23:57:17.073Z,99.90
2019-05-17T23:59:46.051Z,99.90
